createdAt,value
2017-12-17T00:01:58.927Z,59.40
2017-12-17T00:04:26.528Z,58.90
2017-12-17T00:06:54.111Z,58.50
2017-12-17T00:09:22.446Z,58.20
2017-12-17T00:11:50.065Z,58.20
2017-12-17T00:14:17.630Z,58.40
2017-12-17T00:16:45.216Z,58.60
2017-12-17T00:19:12.778Z,58.60
2017-12-17T00:21:40.334Z,58.70
2017-12-17T00:24:07.896Z,58.50
2017-12-17T00:26:35.496Z,58.30
2017-12-17T00:29:03.032Z,58.30
2017-12-17T00:31:30.614Z,58.30
2017-12-17T00:33:58.134Z,58.40
2017-12-17T00:36:25.693Z,58.70
2017-12-17T00:38:53.242Z,59.20
2017-12-17T00:41:20.814Z,59.10
2017-12-17T00:43:48.358Z,58.90
2017-12-17T00:46:15.925Z,59.20
2017-12-17T00:48:43.506Z,59.00
2017-12-17T00:51:11.034Z,59.10
2017-12-17T00:53:38.625Z,59.40
2017-12-17T00:56:06.159Z,59.40
2017-12-17T00:58:33.710Z,59.10
2017-12-17T01:01:01.329Z,59.20
2017-12-17T01:03:28.837Z,58.90
2017-12-17T01:05:56.402Z,59.00
2017-12-17T01:08:24.032Z,58.30
2017-12-17T01:10:51.604Z,58.20
2017-12-17T01:13:19.140Z,58.50
2017-12-17T01:15:47.510Z,58.80
2017-12-17T01:18:15.814Z,58.90
2017-12-17T01:20:43.374Z,58.80
2017-12-17T01:23:10.935Z,58.80
2017-12-17T01:25:38.505Z,59.10
2017-12-17T01:28:06.035Z,59.20
2017-12-17T01:30:34.369Z,58.80
2017-12-17T01:33:01.900Z,58.70
2017-12-17T01:35:29.456Z,58.30
2017-12-17T01:37:56.998Z,58.30
2017-12-17T01:40:24.619Z,58.20
2017-12-17T01:42:52.933Z,58.40
2017-12-17T01:45:21.272Z,58.40
2017-12-17T01:47:48.831Z,58.30
2017-12-17T01:50:16.388Z,57.90
2017-12-17T01:52:43.970Z,57.90
2017-12-17T01:55:11.491Z,58.30
2017-12-17T01:57:39.026Z,58.20
2017-12-17T02:00:06.594Z,57.90
2017-12-17T02:02:34.123Z,58.30
2017-12-17T02:05:02.464Z,58.50
2017-12-17T02:07:30.027Z,58.40
2017-12-17T02:09:57.578Z,58.60
2017-12-17T02:12:25.101Z,58.40
2017-12-17T02:14:52.712Z,58.30
2017-12-17T02:17:20.229Z,58.60
2017-12-17T02:19:47.815Z,58.50
2017-12-17T02:22:15.373Z,58.30
2017-12-17T02:24:42.894Z,57.90
2017-12-17T02:27:10.463Z,57.70
2017-12-17T02:29:37.998Z,58.00
2017-12-17T02:32:06.311Z,57.80
2017-12-17T02:34:33.866Z,57.70
2017-12-17T02:37:01.394Z,57.80
2017-12-17T02:39:28.943Z,57.70
2017-12-17T02:41:56.472Z,57.50
2017-12-17T02:44:24.037Z,57.60
2017-12-17T02:46:53.188Z,58.00
2017-12-17T02:49:20.748Z,58.00
2017-12-17T02:51:48.291Z,58.10
2017-12-17T02:54:15.855Z,58.60
2017-12-17T02:56:43.428Z,58.70
2017-12-17T02:59:10.992Z,58.50
2017-12-17T03:01:38.553Z,57.80
2017-12-17T03:04:06.106Z,57.90
2017-12-17T03:06:33.661Z,58.10
2017-12-17T03:09:01.188Z,57.90
2017-12-17T03:11:28.781Z,58.10
2017-12-17T03:13:57.092Z,57.50
2017-12-17T03:16:24.609Z,57.50
2017-12-17T03:18:52.924Z,58.10
2017-12-17T03:21:20.446Z,58.10
2017-12-17T03:23:48.769Z,57.80
2017-12-17T03:26:16.288Z,57.80
2017-12-17T03:28:43.829Z,57.80
2017-12-17T03:31:11.361Z,58.20
2017-12-17T03:33:38.874Z,58.10
2017-12-17T03:36:06.420Z,58.00
2017-12-17T03:38:34.759Z,58.30
2017-12-17T03:41:02.298Z,58.30
2017-12-17T03:43:29.844Z,58.20
2017-12-17T03:45:57.401Z,58.40
2017-12-17T03:48:24.931Z,58.00
2017-12-17T03:50:52.486Z,58.00
2017-12-17T03:53:20.033Z,57.60
2017-12-17T03:55:47.557Z,57.80
2017-12-17T03:58:15.104Z,57.80
2017-12-17T04:00:42.611Z,57.70
2017-12-17T04:03:10.158Z,58.00
2017-12-17T04:05:37.669Z,58.00
2017-12-17T04:08:05.245Z,57.80
2017-12-17T04:10:32.785Z,57.80
2017-12-17T04:13:00.331Z,57.50
2017-12-17T04:15:27.845Z,57.40
2017-12-17T04:17:55.394Z,57.50
2017-12-17T04:20:22.922Z,58.10
2017-12-17T04:22:50.466Z,57.70
2017-12-17T04:25:17.980Z,57.70
2017-12-17T04:27:45.520Z,57.90
2017-12-17T04:30:13.028Z,58.10
2017-12-17T04:32:40.572Z,57.90
2017-12-17T04:35:08.113Z,57.50
2017-12-17T04:37:35.654Z,57.60
2017-12-17T04:40:03.293Z,57.50
2017-12-17T04:42:30.844Z,58.00
2017-12-17T04:44:59.121Z,57.70
2017-12-17T04:47:26.670Z,57.70
2017-12-17T04:49:54.950Z,57.70
2017-12-17T04:52:22.517Z,57.70
2017-12-17T04:54:50.792Z,57.80
2017-12-17T04:57:18.327Z,57.80
2017-12-17T04:59:46.625Z,57.30
2017-12-17T05:02:14.137Z,57.70
2017-12-17T05:04:41.684Z,57.80
2017-12-17T05:07:09.217Z,58.00
2017-12-17T05:09:36.761Z,57.50
2017-12-17T05:12:04.350Z,57.70
2017-12-17T05:14:31.918Z,57.90
2017-12-17T05:16:59.440Z,58.10
2017-12-17T05:19:26.993Z,58.40
2017-12-17T05:21:55.276Z,58.90
2017-12-17T05:24:22.819Z,58.90
2017-12-17T05:26:51.141Z,58.70
2017-12-17T05:29:18.657Z,59.30
2017-12-17T05:31:46.937Z,59.70
2017-12-17T05:34:14.507Z,59.30
2017-12-17T05:36:42.055Z,59.40
2017-12-17T05:39:09.570Z,59.30
2017-12-17T05:41:37.116Z,59.40
2017-12-17T05:44:04.632Z,59.30
2017-12-17T05:46:32.949Z,59.30
2017-12-17T05:49:00.509Z,59.30
2017-12-17T05:51:28.051Z,59.10
2017-12-17T05:53:55.572Z,59.50
2017-12-17T05:56:23.148Z,59.50
2017-12-17T05:58:51.459Z,60.50
2017-12-17T06:01:19.284Z,60.50
2017-12-17T06:03:47.589Z,60.10
2017-12-17T06:06:15.141Z,60.10
2017-12-17T06:08:43.458Z,60.00
2017-12-17T06:11:11.004Z,59.90
2017-12-17T06:13:38.518Z,60.10
2017-12-17T06:16:06.134Z,60.00
2017-12-17T06:18:33.630Z,59.90
2017-12-17T06:21:01.211Z,59.50
2017-12-17T06:23:28.747Z,59.40
2017-12-17T06:25:56.256Z,59.10
2017-12-17T06:28:23.815Z,58.90
2017-12-17T06:30:51.361Z,59.30
2017-12-17T06:33:18.875Z,59.00
2017-12-17T06:35:46.436Z,59.40
2017-12-17T06:38:14.010Z,59.00
2017-12-17T06:40:41.530Z,58.50
2017-12-17T06:43:09.080Z,58.50
2017-12-17T06:45:36.593Z,58.30
2017-12-17T06:48:04.923Z,58.30
2017-12-17T06:50:32.460Z,58.30
2017-12-17T06:53:00.049Z,58.70
2017-12-17T06:55:28.370Z,58.80
2017-12-17T06:57:55.876Z,58.70
2017-12-17T07:00:23.433Z,58.90
2017-12-17T07:02:50.945Z,58.90
2017-12-17T07:05:18.473Z,58.90
2017-12-17T07:07:46.058Z,59.00
2017-12-17T07:10:13.577Z,59.20
2017-12-17T07:12:41.111Z,59.10
2017-12-17T07:15:08.660Z,59.00
2017-12-17T07:17:36.171Z,58.90
2017-12-17T07:20:03.739Z,58.90
2017-12-17T07:22:31.254Z,58.90
2017-12-17T07:24:59.640Z,58.70
2017-12-17T07:27:27.178Z,58.80
2017-12-17T07:29:54.741Z,58.80
2017-12-17T07:32:23.435Z,58.70
2017-12-17T07:34:51.051Z,58.90
2017-12-17T07:37:18.592Z,58.90
2017-12-17T07:39:46.118Z,59.10
2017-12-17T07:42:13.685Z,59.30
2017-12-17T07:44:41.253Z,59.40
2017-12-17T07:47:08.816Z,59.50
2017-12-17T07:49:36.325Z,59.60
2017-12-17T07:52:03.871Z,58.90
2017-12-17T07:54:31.409Z,59.00
2017-12-17T07:56:58.927Z,59.20
2017-12-17T07:59:26.464Z,59.30
2017-12-17T08:01:54.748Z,59.70
2017-12-17T08:04:22.338Z,59.70
2017-12-17T08:06:49.894Z,60.50
2017-12-17T08:09:17.430Z,60.30
2017-12-17T08:11:44.977Z,59.90
2017-12-17T08:14:13.253Z,58.90
2017-12-17T08:16:40.802Z,58.90
2017-12-17T08:19:08.312Z,58.10
2017-12-17T08:21:35.957Z,58.30
2017-12-17T08:24:03.473Z,58.00
2017-12-17T08:26:31.012Z,57.20
2017-12-17T08:28:58.566Z,57.40
2017-12-17T08:31:26.125Z,57.50
2017-12-17T08:33:53.649Z,57.20
2017-12-17T08:36:21.184Z,57.40
2017-12-17T08:38:48.753Z,57.70
2017-12-17T08:41:16.309Z,57.60
2017-12-17T08:43:44.609Z,58.70
2017-12-17T08:46:12.169Z,58.70
2017-12-17T08:48:39.706Z,58.90
2017-12-17T08:51:07.248Z,59.20
2017-12-17T08:53:34.866Z,59.50
2017-12-17T08:56:02.439Z,58.90
2017-12-17T08:58:30.013Z,58.90
2017-12-17T09:00:57.521Z,59.40
2017-12-17T09:03:25.856Z,59.00
2017-12-17T09:05:53.372Z,58.90
2017-12-17T09:08:20.915Z,59.10
2017-12-17T09:10:48.488Z,59.20
2017-12-17T09:13:16.030Z,59.60
2017-12-17T09:15:43.640Z,59.60
2017-12-17T09:18:11.215Z,59.50
2017-12-17T09:20:38.830Z,59.10
2017-12-17T09:23:06.481Z,59.10
2017-12-17T09:25:34.016Z,58.80
2017-12-17T09:28:01.562Z,58.60
2017-12-17T09:30:29.130Z,58.90
2017-12-17T09:32:56.685Z,58.50
2017-12-17T09:35:24.275Z,58.10
2017-12-17T09:37:52.956Z,57.80
2017-12-17T09:40:20.491Z,58.20
2017-12-17T09:42:48.058Z,57.90
2017-12-17T09:45:15.572Z,57.70
2017-12-17T09:47:43.144Z,57.60
2017-12-17T09:50:10.716Z,57.50
2017-12-17T09:52:38.323Z,58.10
2017-12-17T09:55:05.864Z,57.50
2017-12-17T09:57:34.159Z,57.10
2017-12-17T10:00:01.699Z,57.10
2017-12-17T10:02:30.022Z,57.20
2017-12-17T10:07:39.648Z,57.00
2017-12-17T10:10:07.507Z,56.90
2017-12-17T10:12:36.188Z,56.00
2017-12-17T10:15:04.505Z,56.30
2017-12-17T10:17:32.022Z,56.40
2017-12-17T10:19:59.560Z,56.40
2017-12-17T10:22:27.068Z,56.10
2017-12-17T10:24:54.669Z,56.30
2017-12-17T10:27:22.248Z,55.50
2017-12-17T10:29:49.821Z,54.90
2017-12-17T10:32:17.380Z,55.30
2017-12-17T10:34:44.930Z,54.80
2017-12-17T10:37:12.506Z,54.70
2017-12-17T10:39:40.090Z,54.90
2017-12-17T10:42:07.614Z,54.70
2017-12-17T10:44:35.184Z,55.00
2017-12-17T10:47:02.710Z,55.20
2017-12-17T10:49:30.301Z,54.70
2017-12-17T10:51:57.849Z,54.70
2017-12-17T10:54:25.398Z,54.80
2017-12-17T10:56:52.961Z,54.70
2017-12-17T10:59:20.550Z,54.60
2017-12-17T11:01:48.100Z,54.70
2017-12-17T11:04:16.414Z,54.60
2017-12-17T11:06:43.985Z,54.60
2017-12-17T11:09:11.496Z,54.60
2017-12-17T11:11:39.065Z,54.10
2017-12-17T11:14:06.603Z,54.90
2017-12-17T11:16:34.946Z,54.40
2017-12-17T11:19:02.471Z,54.30
2017-12-17T11:21:30.841Z,54.30
2017-12-17T11:23:59.124Z,53.90
2017-12-17T11:26:26.653Z,53.90
2017-12-17T11:28:54.213Z,53.90
2017-12-17T11:31:21.740Z,53.70
2017-12-17T11:33:49.318Z,53.50
2017-12-17T11:36:16.840Z,53.40
2017-12-17T11:38:44.380Z,53.20
2017-12-17T11:41:11.935Z,52.80
2017-12-17T11:43:39.506Z,52.70
2017-12-17T11:46:07.052Z,52.80
2017-12-17T11:48:34.608Z,52.90
2017-12-17T11:51:02.234Z,52.50
2017-12-17T11:53:29.791Z,53.10
2017-12-17T11:55:57.336Z,52.70
2017-12-17T11:58:24.873Z,52.70
2017-12-17T12:00:52.431Z,52.30
2017-12-17T12:03:20.030Z,52.70
2017-12-17T12:05:47.598Z,53.20
2017-12-17T12:08:15.142Z,52.50
2017-12-17T12:10:42.783Z,52.20
2017-12-17T12:13:10.306Z,52.40
2017-12-17T12:15:37.898Z,52.60
2017-12-17T12:18:05.416Z,52.40
2017-12-17T12:20:33.045Z,52.00
2017-12-17T12:23:00.635Z,52.20
2017-12-17T12:25:28.191Z,51.10
2017-12-17T12:27:55.726Z,51.10
2017-12-17T12:30:23.279Z,51.30
2017-12-17T12:32:50.880Z,51.40
2017-12-17T12:35:18.460Z,51.60
2017-12-17T12:37:46.007Z,51.40
2017-12-17T12:40:13.577Z,51.40
2017-12-17T12:42:41.208Z,51.00
2017-12-17T12:45:08.769Z,51.10
2017-12-17T12:47:36.316Z,51.00
2017-12-17T12:50:03.842Z,51.20
2017-12-17T12:52:31.402Z,51.30
2017-12-17T12:54:58.920Z,51.40
2017-12-17T12:57:27.214Z,51.00
2017-12-17T12:59:55.539Z,51.40
2017-12-17T13:02:23.056Z,51.40
2017-12-17T13:04:50.645Z,51.10
2017-12-17T13:07:18.248Z,51.80
2017-12-17T13:09:45.780Z,50.60
2017-12-17T13:12:13.338Z,50.80
2017-12-17T13:14:40.854Z,51.10
2017-12-17T13:17:08.476Z,51.40
2017-12-17T13:19:36.026Z,51.90
2017-12-17T13:22:03.538Z,51.30
2017-12-17T13:24:31.085Z,51.70
2017-12-17T13:26:58.741Z,51.60
2017-12-17T13:29:26.871Z,51.50
2017-12-17T13:31:54.458Z,50.60
2017-12-17T13:34:22.051Z,51.00
2017-12-17T13:36:49.617Z,51.60
2017-12-17T13:39:17.210Z,51.50
2017-12-17T13:41:44.749Z,50.70
2017-12-17T13:44:12.357Z,51.00
2017-12-17T13:46:39.861Z,51.50
2017-12-17T13:49:07.417Z,51.20
2017-12-17T13:51:34.924Z,51.60
2017-12-17T13:54:02.458Z,51.10
2017-12-17T13:56:29.997Z,51.20
2017-12-17T13:58:57.560Z,51.90
2017-12-17T14:01:25.144Z,51.40
2017-12-17T14:03:52.702Z,51.70
2017-12-17T14:06:20.264Z,52.00
2017-12-17T14:08:47.773Z,52.30
2017-12-17T14:11:16.186Z,51.90
2017-12-17T14:13:43.738Z,51.90
2017-12-17T14:16:11.260Z,51.80
2017-12-17T14:18:38.853Z,51.40
2017-12-17T14:21:06.418Z,51.90
2017-12-17T14:23:34.059Z,51.80
2017-12-17T14:26:02.004Z,51.60
2017-12-17T14:28:29.745Z,51.40
2017-12-17T14:30:57.557Z,51.60
2017-12-17T14:33:25.118Z,51.80
2017-12-17T14:35:52.732Z,51.60
2017-12-17T14:38:23.070Z,51.40
2017-12-17T14:40:50.613Z,51.50
2017-12-17T14:43:18.163Z,51.60
2017-12-17T14:45:45.691Z,51.50
2017-12-17T14:48:13.268Z,52.00
2017-12-17T14:50:40.790Z,52.40
2017-12-17T14:53:09.340Z,52.20
2017-12-17T14:55:36.939Z,51.80
2017-12-17T14:58:04.466Z,51.90
2017-12-17T15:00:32.062Z,51.70
2017-12-17T15:03:00.534Z,51.10
2017-12-17T15:05:28.090Z,51.10
2017-12-17T15:07:55.617Z,51.60
2017-12-17T15:10:23.154Z,52.00
2017-12-17T15:12:50.949Z,51.60
2017-12-17T15:15:18.474Z,51.90
2017-12-17T15:17:46.470Z,51.80
2017-12-17T15:20:14.022Z,51.80
2017-12-17T15:22:41.613Z,51.80
2017-12-17T15:25:09.950Z,51.80
2017-12-17T15:27:37.571Z,51.80
2017-12-17T15:30:05.172Z,52.00
2017-12-17T15:32:32.740Z,51.70
2017-12-17T15:35:00.342Z,52.00
2017-12-17T15:37:27.960Z,52.40
2017-12-17T15:39:56.527Z,53.50
2017-12-17T15:42:24.134Z,52.70
2017-12-17T15:44:51.691Z,52.10
2017-12-17T15:47:19.201Z,52.40
2017-12-17T15:49:46.809Z,52.10
2017-12-17T15:52:14.408Z,52.20
2017-12-17T15:54:42.012Z,52.40
2017-12-17T15:57:09.636Z,52.90
2017-12-17T15:59:37.274Z,52.70
2017-12-17T16:02:04.808Z,52.40
2017-12-17T16:04:32.391Z,53.20
2017-12-17T16:07:01.561Z,53.60
2017-12-17T16:09:30.067Z,53.60
2017-12-17T16:11:59.828Z,53.10
2017-12-17T16:14:28.223Z,52.70
2017-12-17T16:16:55.772Z,52.70
2017-12-17T16:19:23.804Z,53.40
2017-12-17T16:21:51.412Z,52.50
2017-12-17T16:24:18.972Z,52.50
2017-12-17T16:26:46.588Z,52.90
2017-12-17T16:29:14.911Z,53.30
2017-12-17T16:31:42.446Z,53.30
2017-12-17T16:34:10.089Z,53.50
2017-12-17T16:36:37.676Z,54.40
2017-12-17T16:39:05.229Z,53.60
2017-12-17T16:41:32.761Z,53.90
2017-12-17T16:44:00.360Z,53.90
2017-12-17T16:46:27.894Z,54.20
2017-12-17T16:48:55.430Z,53.80
2017-12-17T16:51:23.093Z,53.90
2017-12-17T16:53:51.439Z,54.40
2017-12-17T16:56:19.053Z,54.50
2017-12-17T16:58:46.691Z,54.80
2017-12-17T17:01:14.253Z,54.80
2017-12-17T17:03:42.631Z,54.90
2017-12-17T17:06:10.262Z,54.90
2017-12-17T17:08:37.973Z,55.10
2017-12-17T17:11:06.271Z,54.70
2017-12-17T17:13:33.784Z,54.70
2017-12-17T17:16:02.120Z,54.30
2017-12-17T17:18:29.732Z,54.30
2017-12-17T17:21:02.360Z,54.10
2017-12-17T17:23:29.937Z,53.50
2017-12-17T17:25:57.528Z,53.40
2017-12-17T17:28:25.931Z,53.20
2017-12-17T17:30:53.552Z,53.10
2017-12-17T17:33:21.158Z,53.70
2017-12-17T17:35:48.704Z,54.00
2017-12-17T17:38:16.331Z,53.80
2017-12-17T17:40:44.163Z,54.30
2017-12-17T17:43:11.746Z,54.20
2017-12-17T17:45:39.295Z,53.90
2017-12-17T17:48:06.874Z,53.90
2017-12-17T17:50:34.487Z,54.10
2017-12-17T17:53:02.048Z,54.70
2017-12-17T17:55:29.690Z,55.40
2017-12-17T17:57:57.221Z,55.40
2017-12-17T18:00:24.828Z,55.50
2017-12-17T18:02:52.662Z,54.70
2017-12-17T18:05:20.228Z,54.70
2017-12-17T18:07:48.620Z,55.00
2017-12-17T18:10:17.042Z,55.30
2017-12-17T18:12:44.628Z,55.20
2017-12-17T18:15:12.186Z,56.00
2017-12-17T18:17:39.793Z,56.40
2017-12-17T18:20:07.389Z,56.70
2017-12-17T18:22:34.957Z,56.70
2017-12-17T18:25:02.582Z,56.80
2017-12-17T18:27:30.175Z,56.60
2017-12-17T18:29:57.684Z,56.00
2017-12-17T18:32:25.296Z,56.30
2017-12-17T18:34:52.913Z,56.50
2017-12-17T18:37:20.519Z,56.20
2017-12-17T18:39:48.052Z,56.40
2017-12-17T18:42:15.575Z,56.20
2017-12-17T18:44:43.175Z,56.60
2017-12-17T18:47:10.814Z,56.80
2017-12-17T18:49:38.345Z,57.10
2017-12-17T18:52:06.031Z,57.20
2017-12-17T18:54:33.620Z,57.50
2017-12-17T18:57:01.218Z,57.00
2017-12-17T18:59:28.788Z,57.00
2017-12-17T19:01:56.391Z,57.10
2017-12-17T19:04:24.056Z,56.60
2017-12-17T19:06:51.567Z,56.50
2017-12-17T19:09:19.935Z,56.40
2017-12-17T19:11:47.503Z,56.30
2017-12-17T19:14:15.117Z,56.80
2017-12-17T19:16:42.688Z,57.50
2017-12-17T19:19:10.300Z,57.30
2017-12-17T19:21:37.871Z,57.20
2017-12-17T19:24:05.491Z,57.50
2017-12-17T19:26:33.083Z,57.50
2017-12-17T19:29:01.462Z,57.70
2017-12-17T19:31:29.826Z,57.10
2017-12-17T19:33:57.395Z,57.10
2017-12-17T19:36:25.003Z,57.30
2017-12-17T19:38:52.587Z,57.20
2017-12-17T19:41:20.229Z,56.80
2017-12-17T19:43:47.833Z,57.00
2017-12-17T19:46:15.491Z,56.90
2017-12-17T19:48:43.059Z,56.90
2017-12-17T19:51:10.665Z,56.70
2017-12-17T19:53:38.223Z,56.70
2017-12-17T19:56:05.819Z,56.80
2017-12-17T19:58:33.420Z,56.90
2017-12-17T20:01:01.015Z,57.20
2017-12-17T20:03:28.600Z,57.30
2017-12-17T20:05:56.200Z,57.50
2017-12-17T20:08:23.795Z,57.40
2017-12-17T20:10:51.385Z,56.60
2017-12-17T20:13:18.947Z,56.40
2017-12-17T20:15:46.597Z,56.70
2017-12-17T20:18:14.313Z,56.70
2017-12-17T20:20:41.905Z,57.00
2017-12-17T20:23:09.568Z,57.30
2017-12-17T20:25:37.606Z,57.20
2017-12-17T20:28:05.198Z,57.30
2017-12-17T20:30:32.873Z,57.70
2017-12-17T20:33:00.489Z,57.70
2017-12-17T20:35:28.094Z,57.60
2017-12-17T20:37:55.742Z,57.90
2017-12-17T20:40:23.359Z,58.20
2017-12-17T20:42:50.953Z,57.80
2017-12-17T20:45:18.518Z,57.70
2017-12-17T20:47:46.122Z,57.50
2017-12-17T20:50:13.758Z,57.40
2017-12-17T20:52:41.418Z,57.70
2017-12-17T20:55:09.031Z,57.50
2017-12-17T20:57:36.636Z,57.50
2017-12-17T21:00:04.223Z,57.00
2017-12-17T21:02:31.839Z,56.50
2017-12-17T21:04:59.449Z,56.80
2017-12-17T21:10:09.827Z,56.90
2017-12-17T21:12:38.231Z,56.70
2017-12-17T21:15:05.852Z,56.70
2017-12-17T21:17:33.432Z,56.40
2017-12-17T21:20:01.043Z,56.20
2017-12-17T21:22:28.607Z,56.00
2017-12-17T21:24:56.245Z,55.80
2017-12-17T21:27:23.816Z,55.50
2017-12-17T21:29:51.407Z,55.20
2017-12-17T21:32:19.815Z,55.30
2017-12-17T21:34:48.196Z,55.60
2017-12-17T21:37:16.548Z,55.80
2017-12-17T21:39:44.134Z,55.70
2017-12-17T21:42:11.796Z,56.10
2017-12-17T21:44:40.210Z,55.90
2017-12-17T21:47:07.763Z,55.90
2017-12-17T21:49:35.406Z,55.90
2017-12-17T21:52:03.744Z,55.30
2017-12-17T21:54:31.389Z,55.30
2017-12-17T21:56:58.972Z,54.70
2017-12-17T21:59:26.560Z,54.90
2017-12-17T22:01:54.190Z,54.80
2017-12-17T22:04:21.762Z,54.90
2017-12-17T22:06:49.362Z,55.00
2017-12-17T22:09:16.934Z,55.20
2017-12-17T22:11:44.552Z,55.20
2017-12-17T22:14:12.136Z,55.00
2017-12-17T22:16:40.513Z,54.50
2017-12-17T22:19:08.840Z,54.50
2017-12-17T22:21:36.723Z,54.50
2017-12-17T22:24:04.291Z,54.90
2017-12-17T22:26:31.909Z,55.00
2017-12-17T22:28:59.583Z,54.70
2017-12-17T22:31:27.196Z,54.70
2017-12-17T22:33:54.802Z,54.80
2017-12-17T22:36:22.400Z,54.70
2017-12-17T22:38:49.988Z,55.40
2017-12-17T22:41:17.588Z,54.70
2017-12-17T22:43:45.200Z,54.50
2017-12-17T22:46:12.813Z,54.70
2017-12-17T22:48:41.191Z,54.70
2017-12-17T22:51:08.798Z,54.80
2017-12-17T22:53:36.384Z,54.90
2017-12-17T22:56:03.996Z,54.70
2017-12-17T22:58:31.560Z,54.30
2017-12-17T23:00:59.168Z,54.00
2017-12-17T23:03:26.731Z,54.40
2017-12-17T23:05:54.312Z,55.10
2017-12-17T23:08:21.877Z,54.70
2017-12-17T23:10:49.486Z,54.60
2017-12-17T23:13:17.069Z,54.70
2017-12-17T23:15:44.709Z,54.70
2017-12-17T23:18:12.273Z,55.40
2017-12-17T23:20:39.880Z,55.30
2017-12-17T23:23:07.447Z,55.60
2017-12-17T23:25:34.975Z,55.60
2017-12-17T23:28:02.522Z,55.20
2017-12-17T23:30:30.060Z,55.10
2017-12-17T23:32:58.329Z,55.00
2017-12-17T23:35:25.877Z,54.90
2017-12-17T23:37:53.441Z,55.10
2017-12-17T23:43:03.050Z,55.10
2017-12-17T23:45:30.590Z,55.20
2017-12-17T23:47:58.128Z,55.20
2017-12-17T23:50:25.639Z,54.90
2017-12-17T23:52:53.181Z,54.00
2017-12-17T23:55:20.741Z,54.10
2017-12-17T23:57:49.012Z,54.40
